首页
METAR-TAF:

METAR-TAF

机场 :

NASA Shuttle Landing Facility

肯尼迪航天中心, 佛罗里达州, 美国

纬度: 28-37N, 经度: 080-43W, 海拔: 3米

当前天气观测

该预报发布于50分钟前的03:56 UTC
风速9节,风向,有时为20节阵风
温度 17°C
湿度 88%
气压 1018 hPa
能見度: 16.1公里
阴天层高于700英尺

METAR: KTTS 210356Z AUTO 36009G20KT 10SM OVC007 17/15 A3006 RMK AO2 CIG 006 RWY15/33 SLP184 T01660149 VISNO RWY15 CHINO RWY15 $

时间: 23:46 (04:46 UTC)


TAF: 丢失

超过4000个机场的气象观测和天气预报(METAR&TAF报告)。

可查询的气象台以黄色和红色小点在地图上表示。

将鼠标移到小点上方,可查看气象台名称。

然后点击查看天气观测和预报。

如需切换地图:点击带黑十字的绿色按钮放大地图;点击带横线的绿色按钮缩小地图;或者点击绿色箭头查看邻近地区的地图。


METAR-TAF: